Time;durP1;ratioP1;P1;durP2;ratioP2;P2;SDS_P1;SDS_P2;PMS_P1;PMS_P2;Temp;Humidity;BMP_temperature;BMP_pressure;BME280_temperature;BME280_humidity;BME280_pressure;Samples;Min_cycle;Max_cycle;Signal;HPM_P1;HPM_P2
2023/11/03 00:00:07;;;;;;;5.22;2.75;;;;;;;15.19;100.00;99772.25;5052554;28;20112;-68
2023/11/03 00:02:33;;;;;;;6.47;2.90;;;;;;;15.20;100.00;99763.56;5051982;28;20025;-66
2023/11/03 00:05:01;;;;;;;6.03;3.20;;;;;;;15.19;100.00;99757.50;5052108;28;20108;-64
2023/11/03 00:07:30;;;;;;;7.95;3.05;;;;;;;15.19;100.00;99756.66;5051761;28;20021;-67
2023/11/03 00:09:56;;;;;;;9.20;3.30;;;;;;;15.23;100.00;99757.50;5052199;28;20074;-66
2023/11/03 00:15:44;;;;;;;9.68;3.00;;;;;;;15.17;100.00;99754.00;5152855;22;20170;-64
2023/11/03 00:18:09;;;;;;;8.65;4.25;;;;;;;15.20;100.00;99763.56;5052379;28;20025;-67
2023/11/03 00:20:35;;;;;;;8.30;3.05;;;;;;;15.22;100.00;99748.84;5050787;28;20491;-65
2023/11/03 00:23:00;;;;;;;11.65;4.28;;;;;;;14.91;100.00;99682.81;5051594;28;20037;-63
2023/11/03 00:25:26;;;;;;;9.77;3.67;;;;;;;15.20;100.00;99737.56;5051926;28;20020;-68
2023/11/03 00:27:52;;;;;;;8.80;3.38;;;;;;;15.25;100.00;99738.44;5052150;28;20120;-66
2023/11/03 00:30:18;;;;;;;10.02;4.25;;;;;;;15.35;100.00;99727.25;5051714;28;20032;-66
2023/11/03 00:32:44;;;;;;;8.68;3.28;;;;;;;15.43;100.00;99721.25;5051569;28;20382;-63
2023/11/03 00:35:09;;;;;;;23.45;4.80;;;;;;;15.47;100.00;99709.97;5051882;28;20087;-64
2023/11/03 00:37:36;;;;;;;12.77;4.22;;;;;;;15.18;100.00;99633.56;5051684;28;20021;-64
2023/11/03 00:40:04;;;;;;;11.80;4.18;;;;;;;15.56;100.00;99675.31;5051111;28;20033;-64
2023/11/03 00:42:30;;;;;;;10.38;4.03;;;;;;;15.61;100.00;99674.47;5051799;28;20025;-64
2023/11/03 00:44:55;;;;;;;13.85;3.72;;;;;;;15.56;100.00;99683.13;5032062;28;20415;-64
2023/11/03 00:47:21;;;;;;;14.90;4.00;;;;;;;15.33;100.00;99673.50;5033755;28;20817;-63
2023/11/03 00:49:46;;;;;;;12.32;3.80;;;;;;;14.77;100.00;99602.16;5051126;28;20437;-63
2023/11/03 00:52:11;;;;;;;8.05;3.97;;;;;;;15.06;100.00;99666.44;5051182;28;20528;-65
2023/11/03 00:54:38;;;;;;;9.10;4.00;;;;;;;14.92;100.00;99675.00;5051200;28;20036;-65
2023/11/03 00:57:05;;;;;;;8.45;3.95;;;;;;;14.84;100.00;99677.56;5037540;28;20029;-64
2023/11/03 00:59:30;;;;;;;6.13;3.53;;;;;;;14.74;100.00;99670.53;5050018;28;20498;-66
2023/11/03 01:01:56;;;;;;;8.30;3.65;;;;;;;14.82;100.00;99668.03;5051148;28;20025;-64
2023/11/03 01:04:22;;;;;;;6.32;3.85;;;;;;;15.01;100.00;99667.25;5051432;28;20025;-64
2023/11/03 01:06:48;;;;;;;11.68;4.07;;;;;;;15.27;100.00;99681.28;5050691;28;20033;-64
2023/11/03 01:09:14;;;;;;;9.15;4.35;;;;;;;14.37;100.00;99515.31;5050856;28;20024;-66
2023/11/03 01:11:40;;;;;;;8.20;3.63;;;;;;;15.47;100.00;99691.78;5050585;28;20380;-63
2023/11/03 01:14:06;;;;;;;6.68;3.50;;;;;;;15.54;100.00;99709.16;5050930;28;20543;-67
2023/11/03 01:16:33;;;;;;;6.53;3.35;;;;;;;15.55;100.00;99712.59;5050505;28;20163;-64
2023/11/03 01:19:04;;;;;;;6.53;2.90;;;;;;;15.57;100.00;99709.16;5050688;28;20029;-64
2023/11/03 01:21:39;;;;;;;9.70;3.30;;;;;;;15.47;100.00;99670.97;5050863;28;20036;-67
2023/11/03 01:24:06;;;;;;;8.85;3.80;;;;;;;15.70;100.00;99691.84;5050419;28;20033;-65
2023/11/03 01:26:33;;;;;;;8.90;3.90;;;;;;;15.70;100.00;99681.44;5050387;28;20556;-65
2023/11/03 01:28:59;;;;;;;8.45;4.53;;;;;;;15.69;100.00;99672.78;5050469;28;20697;-65
2023/11/03 01:31:25;;;;;;;5.43;3.92;;;;;;;15.70;100.00;99671.03;5050609;28;20036;-65
2023/11/03 01:33:51;;;;;;;7.30;3.63;;;;;;;15.73;100.00;99691.00;5055007;28;20041;-64
2023/11/03 01:36:17;;;;;;;8.77;3.90;;;;;;;15.75;100.00;99678.84;5056931;28;20033;-68
2023/11/03 01:38:43;;;;;;;6.75;3.42;;;;;;;15.65;100.00;99671.03;5049778;28;20514;-64
2023/11/03 01:41:09;;;;;;;9.48;3.83;;;;;;;15.79;100.00;99684.09;5049975;28;20059;-66
2023/11/03 01:43:36;;;;;;;10.45;4.40;;;;;;;15.73;100.00;99688.41;5050013;28;20033;-64
2023/11/03 01:46:02;;;;;;;21.35;5.15;;;;;;;15.72;100.00;99684.06;5049738;28;20046;-66
2023/11/03 01:48:35;;;;;;;22.92;5.72;;;;;;;15.81;100.00;99686.69;5050028;28;20021;-63
2023/11/03 01:51:02;;;;;;;26.55;5.97;;;;;;;15.76;100.00;99675.41;5050095;28;20041;-64
2023/11/03 01:53:31;;;;;;;26.38;5.47;;;;;;;15.74;100.00;99690.13;5048409;28;20036;-65
2023/11/03 01:55:58;;;;;;;;;;;;;;;15.86;100.00;99703.22;5050361;28;20040;-65
2023/11/03 01:58:23;;;;;;;17.60;4.97;;;;;;;15.69;100.00;99672.78;5050069;28;19913;-66
2023/11/03 02:00:49;;;;;;;21.85;5.20;;;;;;;15.83;100.00;99693.66;5050590;28;20028;-65
2023/11/03 02:03:15;;;;;;;20.48;5.05;;;;;;;15.82;100.00;99696.25;5050016;28;20036;-65
2023/11/03 02:05:40;;;;;;;24.08;5.05;;;;;;;15.81;100.00;99689.28;5050517;28;20047;-72
2023/11/03 02:08:06;;;;;;;16.30;4.65;;;;;;;15.89;100.00;99705.84;5050316;28;20029;-68
2023/11/03 02:10:32;;;;;;;21.73;5.60;;;;;;;15.53;100.00;99652.78;5049717;28;20111;-66
2023/11/03 02:12:59;;;;;;;26.13;7.07;;;;;;;15.82;100.00;99707.53;5050235;28;20025;-65
2023/11/03 02:15:24;;;;;;;28.67;6.15;;;;;;;15.84;100.00;99712.75;5032016;28;20056;-65
2023/11/03 02:17:50;;;;;;;22.85;6.65;;;;;;;15.84;100.00;99715.38;5050075;28;20028;-66
2023/11/03 02:20:16;;;;;;;21.83;6.28;;;;;;;15.83;100.00;99719.69;5032466;28;20029;-65
2023/11/03 02:22:42;;;;;;;10.27;5.07;;;;;;;15.84;100.00;99720.56;5049994;28;20628;-70
2023/11/03 02:25:08;;;;;;;8.90;4.50;;;;;;;15.82;100.00;99730.97;5049938;28;20029;-65
2023/11/03 02:27:34;;;;;;;10.70;5.38;;;;;;;15.77;100.00;99723.97;5049715;28;20025;-71
2023/11/03 02:29:59;;;;;;;8.88;4.75;;;;;;;15.48;100.00;99657.94;5049665;28;20036;-65
2023/11/03 02:32:26;;;;;;;10.52;4.82;;;;;;;15.82;100.00;99707.53;5049771;28;20031;-64
2023/11/03 02:34:51;;;;;;;13.13;5.03;;;;;;;15.87;100.00;99712.75;5050087;28;20475;-65
2023/11/03 02:37:17;;;;;;;11.27;6.72;;;;;;;15.75;100.00;99687.56;5050282;28;20029;-65
2023/11/03 02:39:47;;;;;;;12.60;8.05;;;;;;;15.77;100.00;99690.16;5049652;28;20025;-64
2023/11/03 02:42:13;;;;;;;12.85;8.20;;;;;;;15.72;100.00;99668.44;5050027;28;20040;-65
2023/11/03 02:44:39;;;;;;;10.32;6.72;;;;;;;15.69;100.00;99692.72;5049744;28;20411;-64
2023/11/03 02:47:04;;;;;;;11.82;6.40;;;;;;;15.76;100.00;99707.47;5050010;28;20028;-64
2023/11/03 02:49:31;;;;;;;10.98;6.60;;;;;;;15.66;100.00;99696.19;5049777;28;20029;-70
2023/11/03 02:51:57;;;;;;;11.75;6.38;;;;;;;15.79;100.00;99715.31;5049750;28;20029;-65
2023/11/03 02:54:22;;;;;;;9.38;6.10;;;;;;;15.30;100.00;99660.47;5049921;28;20052;-63
2023/11/03 02:56:48;;;;;;;12.05;6.68;;;;;;;15.50;100.00;99707.38;5049433;28;20636;-64
2023/11/03 02:59:13;;;;;;;10.38;6.15;;;;;;;15.46;100.00;99714.28;5049374;28;20033;-66
2023/11/03 03:01:40;;;;;;;11.93;6.70;;;;;;;15.40;100.00;99711.66;5049830;28;20755;-65
2023/11/03 03:04:06;;;;;;;9.10;5.95;;;;;;;15.15;100.00;99659.56;5049731;28;20530;-65
2023/11/03 03:06:33;;;;;;;13.90;6.65;;;;;;;15.17;100.00;99655.22;5049748;28;20032;-66
2023/11/03 03:08:58;;;;;;;12.10;6.15;;;;;;;15.50;100.00;99689.16;5049679;28;20037;-65
2023/11/03 03:11:24;;;;;;;13.40;6.50;;;;;;;15.41;100.00;99663.13;5030745;28;20044;-64
2023/11/03 03:13:49;;;;;;;15.65;7.50;;;;;;;15.11;100.00;99649.13;5049508;28;20045;-64
2023/11/03 03:16:19;;;;;;;13.80;7.90;;;;;;;14.81;100.00;99663.69;5049608;28;20060;-64
2023/11/03 03:18:46;;;;;;;11.88;7.35;;;;;;;14.71;100.00;99658.41;5049230;28;20028;-66
2023/11/03 03:21:16;;;;;;;14.82;7.07;;;;;;;14.19;100.00;99582.69;5049343;28;20037;-64
2023/11/03 03:23:41;;;;;;;13.65;6.90;;;;;;;14.31;100.00;99598.34;5053244;28;20033;-64
2023/11/03 03:26:07;;;;;;;14.15;7.05;;;;;;;14.75;100.00;99666.22;5035102;28;20549;-63
2023/11/03 03:28:33;;;;;;;11.23;7.05;;;;;;;14.86;100.00;99675.81;5053157;28;20131;-64
2023/11/03 03:30:59;;;;;;;15.13;7.18;;;;;;;14.93;100.00;99661.16;5052930;28;20071;-64
2023/11/03 03:33:25;;;;;;;17.08;7.40;;;;;;;15.01;100.00;99663.78;5058424;28;20075;-64
2023/11/03 03:35:50;;;;;;;10.68;7.30;;;;;;;15.11;100.00;99673.38;5065845;28;20534;-65
2023/11/03 03:38:16;;;;;;;14.40;8.30;;;;;;;15.12;100.00;99662.13;5053565;28;20454;-64
2023/11/03 03:40:41;;;;;;;11.20;8.20;;;;;;;15.18;100.00;99661.31;5052803;28;20399;-65
2023/11/03 03:43:07;;;;;;;12.05;7.78;;;;;;;14.82;100.00;99593.53;5052980;28;20419;-68
2023/11/03 03:45:32;;;;;;;10.57;8.05;;;;;;;15.14;100.00;99647.41;5052482;28;20029;-65
2023/11/03 03:47:58;;;;;;;13.80;8.25;;;;;;;15.14;100.00;99659.53;5051591;28;20040;-65
2023/11/03 03:50:23;;;;;;;14.52;8.95;;;;;;;15.14;100.00;99650.00;5052326;28;20032;-65
2023/11/03 03:52:48;;;;;;;21.23;10.93;;;;;;;14.87;100.00;99589.22;5052753;28;20036;-66
2023/11/03 03:55:14;;;;;;;15.68;10.40;;;;;;;15.24;100.00;99635.31;5052403;28;20029;-65
2023/11/03 03:57:40;;;;;;;14.75;10.07;;;;;;;15.03;100.00;99590.16;5016979;28;20132;-64
2023/11/03 04:00:07;;;;;;;15.05;10.15;;;;;;;15.29;100.00;99627.53;5052164;28;20037;-66
2023/11/03 04:02:33;;;;;;;15.73;10.50;;;;;;;15.30;100.00;99609.34;5052393;28;20035;-65
2023/11/03 04:04:59;;;;;;;16.50;9.77;;;;;;;15.42;100.00;99628.47;5052114;28;20036;-66
2023/11/03 04:07:24;;;;;;;13.35;9.95;;;;;;;15.52;100.00;99638.03;5052401;28;20045;-64
2023/11/03 04:09:50;;;;;;;13.05;8.95;;;;;;;15.52;100.00;99646.69;5052501;28;20040;-65
2023/11/03 04:12:16;;;;;;;19.58;10.07;;;;;;;15.41;100.00;99617.16;5052115;28;20020;-65
2023/11/03 04:14:42;;;;;;;13.70;8.57;;;;;;;15.56;100.00;99621.56;5052021;28;20492;-64
2023/11/03 04:17:07;;;;;;;13.93;8.73;;;;;;;15.57;100.00;99623.28;5052400;28;20021;-65
2023/11/03 04:19:33;;;;;;;18.00;10.20;;;;;;;15.59;100.00;99629.38;5051594;28;20078;-65
2023/11/03 04:21:59;;;;;;;15.23;8.80;;;;;;;15.53;100.00;99629.38;5052551;28;20033;-67
2023/11/03 04:24:24;;;;;;;17.10;8.90;;;;;;;15.49;100.00;99625.03;5052239;28;20036;-65
2023/11/03 04:26:50;;;;;;;21.05;13.38;;;;;;;15.45;100.00;99629.34;5051087;28;20399;-65
2023/11/03 04:29:18;;;;;;;21.88;12.43;;;;;;;15.44;100.00;99630.19;4998006;28;20499;-66
2023/11/03 04:31:43;;;;;;;21.73;14.82;;;;;;;15.31;100.00;99595.47;5051423;28;20021;-65
2023/11/03 04:34:10;;;;;;;24.25;15.60;;;;;;;15.42;100.00;99603.31;5050943;28;20025;-63
2023/11/03 04:36:35;;;;;;;25.63;15.57;;;;;;;15.36;100.00;99600.69;5051660;28;20084;-65
2023/11/03 04:39:00;;;;;;;23.58;15.70;;;;;;;15.33;100.00;99590.28;5051341;28;20444;-65
2023/11/03 04:41:28;;;;;;;25.42;16.13;;;;;;;15.49;100.00;99614.63;5051601;28;20036;-64
2023/11/03 04:43:53;;;;;;;23.63;15.50;;;;;;;15.50;100.00;99624.13;5051540;28;20690;-65
2023/11/03 04:46:19;;;;;;;24.88;16.25;;;;;;;15.50;100.00;99630.22;5049636;28;20079;-64
2023/11/03 04:48:45;;;;;;;24.95;16.85;;;;;;;15.52;100.00;99620.66;5051275;28;20025;-65
2023/11/03 04:51:11;;;;;;;24.98;15.98;;;;;;;15.53;100.00;99600.75;5051636;28;20021;-65
2023/11/03 04:53:36;;;;;;;24.02;15.70;;;;;;;15.62;100.00;99607.72;5051761;28;20033;-65
2023/11/03 04:56:02;;;;;;;26.55;17.20;;;;;;;15.66;100.00;99607.72;5051216;28;20558;-66
2023/11/03 04:58:27;;;;;;;23.13;15.30;;;;;;;15.56;100.00;99590.34;5050613;28;20091;-65
2023/11/03 05:00:54;;;;;;;32.22;17.10;;;;;;;15.18;100.00;99541.69;5050608;28;20391;-65
2023/11/03 05:03:20;;;;;;;29.95;19.70;;;;;;;15.66;100.00;99612.03;5051181;28;20053;-65
2023/11/03 05:05:46;;;;;;;29.25;19.50;;;;;;;15.45;100.00;99573.84;5051344;28;20051;-65
2023/11/03 05:08:11;;;;;;;31.13;18.55;;;;;;;15.59;100.00;99592.06;5051389;28;20044;-64
2023/11/03 05:10:37;;;;;;;24.80;16.80;;;;;;;15.78;100.00;99613.81;5051408;28;20032;-64
2023/11/03 05:13:04;;;;;;;28.40;17.10;;;;;;;15.78;100.00;99612.06;5050835;28;20139;-65
2023/11/03 05:15:30;;;;;;;22.98;15.27;;;;;;;15.82;100.00;99608.63;5029904;28;20123;-65
2023/11/03 05:17:56;;;;;;;22.20;15.48;;;;;;;15.66;100.00;99586.91;5030836;28;20030;-65
2023/11/03 05:20:22;;;;;;;22.80;15.93;;;;;;;15.78;100.00;99624.22;5029655;28;20399;-65
2023/11/03 05:22:48;;;;;;;22.52;15.45;;;;;;;15.83;100.00;99619.94;4988321;28;20074;-66
2023/11/03 05:25:13;;;;;;;24.20;15.35;;;;;;;15.87;100.00;99619.06;4987056;28;20121;-63
2023/11/03 05:27:39;;;;;;;24.08;16.25;;;;;;;15.72;100.00;99603.41;4988881;28;20039;-69
2023/11/03 05:30:06;;;;;;;22.00;14.88;;;;;;;15.62;100.00;99610.31;4989089;28;20045;-67
2023/11/03 05:32:33;;;;;;;19.88;14.32;;;;;;;15.44;100.00;99587.69;4988993;28;20448;-65
2023/11/03 05:35:00;;;;;;;22.30;14.45;;;;;;;15.17;100.00;99564.22;4988262;28;20205;-64
2023/11/03 05:37:27;;;;;;;19.80;14.43;;;;;;;15.39;100.00;99605.03;4989078;28;20182;-65
2023/11/03 05:39:53;;;;;;;21.73;14.60;;;;;;;15.40;100.00;99636.22;4988856;28;20398;-64
2023/11/03 05:42:18;;;;;;;24.83;15.98;;;;;;;15.27;100.00;99635.31;4988999;28;20058;-64
2023/11/03 05:44:44;;;;;;;22.52;14.93;;;;;;;15.49;100.00;99653.63;4988775;28;20580;-65
2023/11/03 05:47:09;;;;;;;23.20;15.10;;;;;;;15.59;100.00;99646.72;4988802;28;20034;-65
2023/11/03 05:49:35;;;;;;;20.02;13.57;;;;;;;15.58;100.00;99655.41;4972565;28;20066;-65
2023/11/03 05:52:00;;;;;;;21.77;15.02;;;;;;;14.93;100.00;99562.41;4988841;28;20061;-66
2023/11/03 05:54:26;;;;;;;21.55;13.38;;;;;;;14.86;100.00;99587.47;5021239;28;20037;-64
2023/11/03 05:56:51;;;;;;;22.42;14.18;;;;;;;15.37;100.00;99668.31;5030971;28;20056;-64
2023/11/03 05:59:17;;;;;;;23.05;14.65;;;;;;;15.44;100.00;99658.81;5029613;28;20112;-64
2023/11/03 06:01:42;;;;;;;21.45;14.65;;;;;;;15.55;100.00;99668.38;5030661;28;20026;-65
2023/11/03 06:04:08;;;;;;;22.50;13.90;;;;;;;15.30;100.00;99598.94;5030717;28;20025;-66
2023/11/03 06:06:33;;;;;;;21.13;14.30;;;;;;;15.76;100.00;99652.81;5030482;28;20029;-65
2023/11/03 06:08:59;;;;;;;20.50;14.30;;;;;;;15.97;100.00;99665.06;5030792;28;20111;-65
2023/11/03 06:11:25;;;;;;;21.45;14.32;;;;;;;16.00;100.00;99646.00;5030660;28;20030;-65
2023/11/03 06:13:50;;;;;;;19.00;11.95;;;;;;;16.10;100.00;99654.66;5030657;28;20045;-65
2023/11/03 06:16:22;;;;;;;18.70;12.45;;;;;;;16.08;100.00;99646.00;5047940;28;20049;-65
2023/11/03 06:18:48;;;;;;;18.92;12.95;;;;;;;16.02;100.00;99599.97;5050443;28;20471;-64
2023/11/03 06:21:14;;;;;;;18.80;11.73;;;;;;;15.90;100.00;99569.63;5050419;28;20033;-69
2023/11/03 06:23:39;;;;;;;18.58;12.02;;;;;;;16.21;100.00;99619.06;5050316;28;20048;-65
2023/11/03 06:26:25;;;;;;;19.67;10.75;;;;;;;16.18;100.00;99617.34;5050486;28;20025;-65
2023/11/03 06:28:52;;;;;;;17.63;11.50;;;;;;;15.93;100.00;99615.59;5007709;28;20087;-65
2023/11/03 06:31:18;;;;;;;20.33;12.57;;;;;;;15.92;100.00;99635.53;5008219;28;20415;-67
2023/11/03 06:33:43;;;;;;;17.05;11.75;;;;;;;15.88;100.00;99610.38;5008164;28;20065;-65
2023/11/03 06:36:09;;;;;;;16.60;10.55;;;;;;;15.85;100.00;99613.84;5008196;28;20109;-65
2023/11/03 06:38:34;;;;;;;17.63;11.57;;;;;;;15.82;100.00;99612.97;5008068;28;20101;-64
2023/11/03 06:41:03;;;;;;;17.40;11.07;;;;;;;15.67;100.00;99605.97;5008031;28;20026;-67
2023/11/03 06:43:30;;;;;;;16.30;10.65;;;;;;;15.72;100.00;99616.41;5007719;28;20049;-65
2023/11/03 06:45:55;;;;;;;17.20;11.18;;;;;;;15.74;100.00;99606.84;5008024;28;20512;-65
2023/11/03 06:48:21;;;;;;;17.02;10.90;;;;;;;15.81;100.00;99611.22;5007986;28;20069;-66
2023/11/03 06:50:46;;;;;;;17.30;10.95;;;;;;;15.85;100.00;99618.22;5007952;28;20153;-66
2023/11/03 06:53:11;;;;;;;10.05;6.88;;;;;;;15.48;100.00;99550.44;5007749;28;20134;-65
2023/11/03 06:55:37;;;;;;;7.68;5.28;;;;;;;15.60;100.00;99558.28;5007978;28;20053;-65
2023/11/03 06:58:02;;;;;;;8.27;5.45;;;;;;;15.97;100.00;99609.53;5010339;28;20034;-65
2023/11/03 07:00:29;;;;;;;9.20;5.35;;;;;;;15.66;100.00;99570.41;5026327;28;20061;-64
2023/11/03 07:02:56;;;;;;;11.38;5.38;;;;;;;15.85;100.00;99608.66;5036045;28;20427;-64
2023/11/03 07:05:23;;;;;;;9.52;5.13;;;;;;;15.85;100.00;99598.25;5053620;28;20414;-65
2023/11/03 07:07:48;;;;;;;13.15;6.07;;;;;;;15.81;100.00;99595.59;5053562;28;20079;-65
2023/11/03 07:10:14;;;;;;;8.52;5.70;;;;;;;15.91;100.00;99597.38;5053716;28;20021;-64
2023/11/03 07:12:39;;;;;;;11.05;5.50;;;;;;;15.81;100.00;99587.78;5048679;28;20071;-64
2023/11/03 07:15:07;;;;;;;10.25;6.53;;;;;;;15.83;100.00;99599.97;5053285;28;20057;-69
2023/11/03 07:17:34;;;;;;;9.57;6.82;;;;;;;15.88;100.00;99601.72;5053790;28;20024;-69
2023/11/03 07:19:59;;;;;;;8.32;5.57;;;;;;;15.77;100.00;99583.44;5053215;28;20411;-65
2023/11/03 07:22:26;;;;;;;8.63;4.97;;;;;;;15.89;100.00;99599.13;5053588;28;20029;-64
2023/11/03 07:24:54;;;;;;;6.93;4.65;;;;;;;15.85;100.00;99579.16;5053661;28;20029;-64
2023/11/03 07:27:19;;;;;;;9.75;6.00;;;;;;;15.95;100.00;99587.81;5033345;28;20036;-64
2023/11/03 07:29:45;;;;;;;6.10;3.80;;;;;;;15.83;100.00;99523.63;5052439;28;20033;-66
2023/11/03 07:32:10;;;;;;;8.68;4.32;;;;;;;16.39;100.00;99586.09;5051498;28;20025;-64
2023/11/03 07:34:36;;;;;;;7.13;4.18;;;;;;;16.59;100.00;99584.31;5040726;28;20037;-65
2023/11/03 07:37:01;;;;;;;6.22;3.90;;;;;;;16.71;100.00;99585.16;5033097;28;20032;-67
2023/11/03 07:39:27;;;;;;;5.63;3.45;;;;;;;16.73;100.00;99588.66;5052398;28;20036;-64
2023/11/03 07:41:53;;;;;;;6.55;3.97;;;;;;;16.86;100.00;99590.34;5053153;28;20033;-65
2023/11/03 07:44:21;;;;;;;6.05;3.63;;;;;;;16.98;100.00;99592.97;5053146;28;20024;-65
2023/11/03 07:46:48;;;;;;;5.80;3.80;;;;;;;17.03;100.00;99594.66;5053237;28;20040;-64
2023/11/03 07:49:13;;;;;;;7.50;3.70;;;;;;;17.20;100.00;99589.41;5053146;28;20028;-64
2023/11/03 07:51:39;;;;;;;7.75;4.53;;;;;;;17.22;100.00;99552.00;5053132;28;20528;-65
2023/11/03 07:54:05;;;;;;;5.68;3.92;;;;;;;17.58;100.00;99597.03;5052543;28;20021;-65
2023/11/03 07:56:31;;;;;;;7.10;3.80;;;;;;;17.57;100.00;99600.50;5052986;28;20500;-65
2023/11/03 07:58:56;;;;;;;6.10;3.83;;;;;;;17.62;100.00;99595.28;5052908;28;20132;-64
2023/11/03 08:01:22;;;;;;;6.57;3.75;;;;;;;17.71;100.00;99605.66;5052597;28;20106;-66
2023/11/03 08:03:47;;;;;;;7.15;3.72;;;;;;;17.55;100.00;99585.75;5053138;28;20029;-65
2023/11/03 08:06:13;;;;;;;7.55;4.20;;;;;;;17.56;100.00;99554.41;5052810;28;20441;-66
2023/11/03 08:08:39;;;;;;;8.43;3.78;;;;;;;17.80;100.00;99573.38;5052603;28;20112;-63
2023/11/03 08:11:06;;;;;;;6.93;3.75;;;;;;;17.92;100.00;99575.06;5052597;28;20571;-65
2023/11/03 08:13:32;;;;;;;6.50;3.60;;;;;;;17.67;100.00;99575.22;5049328;28;20075;-66
2023/11/03 08:15:58;;;;;;;6.28;4.15;;;;;;;17.56;100.00;99550.94;5052489;28;20084;-66
2023/11/03 08:18:30;;;;;;;6.47;4.20;;;;;;;17.44;100.00;99546.66;5052364;28;20021;-65
2023/11/03 08:20:57;;;;;;;7.10;3.70;;;;;;;17.67;100.00;99537.78;5052706;28;20115;-66
2023/11/03 08:23:44;;;;;;;7.75;3.92;;;;;;;17.76;100.00;99550.81;5000313;28;20037;-66
2023/11/03 08:26:11;;;;;;;5.00;2.97;;;;;;;18.06;100.00;99546.25;5029537;28;20132;-65
2023/11/03 08:28:37;;;;;;;5.07;2.75;;;;;;;18.34;100.00;99544.22;5029582;28;20125;-65
2023/11/03 08:31:02;;;;;;;8.48;3.03;;;;;;;18.61;100.00;99536.13;5029465;28;20042;-69
2023/11/03 08:33:28;;;;;;;10.15;2.70;;;;;;;18.76;100.00;99518.50;5029200;28;20037;-66
2023/11/03 08:35:53;;;;;;;5.97;2.50;;;;;;;18.84;100.00;99523.66;5029333;28;20041;-65
2023/11/03 08:38:19;;;;;;;4.38;2.50;;;;;;;18.91;100.00;99512.25;5029549;28;20084;-66
2023/11/03 08:40:45;;;;;;;8.25;2.78;;;;;;;19.07;100.00;99517.31;5012933;28;20041;-66
2023/11/03 08:43:11;;;;;;;6.07;2.65;;;;;;;19.14;100.00;99526.81;5027207;28;20053;-65
2023/11/03 08:45:36;;;;;;;3.55;2.33;;;;;;;19.16;100.00;99519.78;5009267;28;20485;-68
2023/11/03 08:48:04;;;;;;;5.45;2.20;;;;;;;19.27;100.00;99518.78;5009572;28;20076;-65
2023/11/03 08:50:30;;;;;;;7.47;3.88;;;;;;;19.27;100.00;99519.63;5009516;28;20038;-65
2023/11/03 08:52:56;;;;;;;4.68;2.45;;;;;;;19.11;100.00;99484.13;5009391;28;20045;-65
2023/11/03 08:55:22;;;;;;;7.85;3.20;;;;;;;19.30;100.00;99505.66;5009249;28;20030;-66
2023/11/03 08:57:47;;;;;;;4.85;2.60;;;;;;;19.30;100.00;99508.25;5026644;28;20034;-65
2023/11/03 09:00:15;;;;;;;4.18;2.42;;;;;;;19.32;100.00;99499.50;5031866;28;20034;-65
2023/11/03 09:02:41;;;;;;;4.72;2.58;;;;;;;19.41;100.00;99498.50;5031872;28;20511;-64
2023/11/03 09:05:12;;;;;;;8.63;2.65;;;;;;;19.50;100.00;99494.88;5031630;28;20032;-66
2023/11/03 09:07:42;;;;;;;9.38;2.63;;;;;;;19.18;100.00;99431.69;5031720;28;20026;-64
2023/11/03 09:10:29;;;;;;;4.57;2.10;;;;;;;19.65;100.00;99494.66;5031349;28;20033;-67
2023/11/03 09:12:55;;;;;;;4.22;2.65;;;;;;;19.63;100.00;99485.94;5009090;28;20125;-65
2023/11/03 09:15:21;;;;;;;4.75;2.30;;;;;;;19.69;100.00;99491.09;5008818;28;20133;-64
2023/11/03 09:17:46;;;;;;;7.07;2.60;;;;;;;19.72;100.00;99471.84;5009165;28;20154;-65
2023/11/03 09:20:17;;;;;;;5.82;2.65;;;;;;;19.81;100.00;99471.69;5008485;28;20077;-64
2023/11/03 09:22:43;;;;;;;6.10;2.60;;;;;;;19.84;100.00;99461.19;5008918;28;20061;-66
2023/11/03 09:25:09;;;;;;;6.20;2.60;;;;;;;19.75;100.00;99471.81;5008940;28;20030;-66
2023/11/03 09:27:34;;;;;;;5.78;3.40;;;;;;;19.63;100.00;99475.47;5008968;28;20045;-69
2023/11/03 09:30:00;;;;;;;7.10;3.20;;;;;;;19.09;100.00;99400.44;5008656;28;20033;-65
2023/11/03 09:32:27;;;;;;;4.95;2.60;;;;;;;19.45;100.00;99458.31;5009110;28;20464;-66
2023/11/03 09:34:52;;;;;;;5.70;3.00;;;;;;;19.44;100.00;99453.97;4992360;28;20114;-70
2023/11/03 09:37:18;;;;;;;5.00;2.58;;;;;;;19.42;100.00;99460.97;5009172;28;20069;-70
2023/11/03 09:39:43;;;;;;;4.18;2.33;;;;;;;19.42;100.00;99457.50;5008662;28;20397;-65
2023/11/03 09:42:16;;;;;;;4.00;2.60;;;;;;;19.30;100.00;99425.41;4992365;28;20064;-65
2023/11/03 09:44:42;;;;;;;5.90;2.50;;;;;;;19.66;100.00;99456.22;5026965;28;20071;-65
2023/11/03 09:47:10;;;;;;;5.45;2.65;;;;;;;19.61;100.00;99416.16;5031184;28;20026;-65
2023/11/03 09:49:36;;;;;;;5.35;2.40;;;;;;;19.48;100.00;99356.16;5030902;28;20032;-66
2023/11/03 09:52:06;;;;;;;4.97;2.60;;;;;;;19.44;100.00;99349.28;5030958;28;20097;-65
2023/11/03 09:54:35;;;;;;;4.13;2.55;;;;;;;19.77;100.00;99394.06;5030988;28;20498;-65
2023/11/03 09:57:08;;;;;;;4.57;2.47;;;;;;;19.68;100.00;99391.63;5030487;28;20407;-66
2023/11/03 09:59:35;;;;;;;5.10;3.20;;;;;;;19.67;100.00;99368.94;5030707;28;20029;-65
2023/11/03 10:02:28;;;;;;;6.43;2.50;;;;;;;19.63;100.00;99398.69;5030811;28;20030;-65
2023/11/03 10:04:54;;;;;;;7.40;2.63;;;;;;;19.77;100.00;99391.44;4969280;28;20403;-65
2023/11/03 10:07:19;;;;;;;6.32;2.85;;;;;;;19.98;100.00;99390.22;4969490;28;20053;-67
2023/11/03 10:09:45;;;;;;;4.50;2.80;;;;;;;20.20;100.00;99393.28;4969235;28;20065;-65
2023/11/03 10:12:15;;;;;;;5.80;2.88;;;;;;;20.43;100.00;99394.56;4969410;28;20035;-65
2023/11/03 10:14:46;;;;;;;6.07;2.80;;;;;;;20.60;100.00;99386.34;4969022;28;20105;-64
2023/11/03 10:17:14;;;;;;;8.35;3.15;;;;;;;20.64;100.00;99364.41;4969151;28;20035;-65
2023/11/03 10:19:40;;;;;;;5.72;2.90;;;;;;;20.90;100.00;99378.72;4969235;28;20039;-64
2023/11/03 10:22:08;;;;;;;9.48;2.90;;;;;;;20.80;100.00;99367.56;4952841;28;20201;-65
2023/11/03 10:24:39;;;;;;;5.03;3.30;;;;;;;21.12;100.00;99367.72;4969146;28;20037;-66
2023/11/03 10:27:05;;;;;;;17.20;2.88;;;;;;;21.15;100.00;99371.13;4969138;28;20066;-65
2023/11/03 10:29:31;;;;;;;6.50;2.47;;;;;;;20.98;99.69;99340.03;4969082;28;20097;-64
2023/11/03 10:31:57;;;;;;;4.55;3.17;;;;;;;21.04;100.00;99362.66;4970330;28;20130;-64
2023/11/03 10:34:24;;;;;;;4.88;2.70;;;;;;;21.06;100.00;99363.50;4973073;28;20039;-64
2023/11/03 10:36:53;;;;;;;9.07;3.00;;;;;;;20.74;100.00;99302.13;4972963;28;20122;-65
2023/11/03 10:39:20;;;;;;;5.90;2.80;;;;;;;21.21;99.87;99366.63;4973019;28;20045;-65
2023/11/03 10:41:46;;;;;;;8.68;3.08;;;;;;;20.90;100.00;99280.78;5006225;28;20033;-64
2023/11/03 10:44:13;;;;;;;6.22;3.03;;;;;;;21.20;100.00;99333.38;5034500;28;20826;-63
2023/11/03 10:46:45;;;;;;;6.97;3.05;;;;;;;21.12;99.98;99316.09;5034104;28;20377;-64
2023/11/03 10:49:29;;;;;;;7.47;2.60;;;;;;;21.30;99.47;99330.50;5034066;28;20442;-64
2023/11/03 10:52:13;;;;;;;5.78;2.90;;;;;;;21.47;99.02;99321.31;5016221;28;20092;-64
2023/11/03 10:55:08;;;;;;;4.38;2.53;;;;;;;21.53;97.74;99304.56;5034044;28;20104;-66
2023/11/03 10:57:34;;;;;;;6.30;3.28;;;;;;;21.54;97.34;99277.41;5022812;28;20040;-66
2023/11/03 11:00:26;;;;;;;8.05;3.40;;;;;;;21.84;97.61;99320.38;5053660;28;20029;-64
2023/11/03 11:02:58;;;;;;;6.35;3.10;;;;;;;21.95;97.48;99318.28;5053956;28;20105;-65
2023/11/03 11:05:45;;;;;;;5.70;3.10;;;;;;;22.02;95.68;99323.38;5053930;28;20037;-64
2023/11/03 11:08:11;;;;;;;6.47;3.17;;;;;;;22.17;95.39;99317.69;5053914;28;20032;-64
2023/11/03 11:10:40;;;;;;;9.38;3.22;;;;;;;22.34;93.21;99297.91;5053765;28;20090;-65
2023/11/03 11:13:15;;;;;;;5.20;2.63;;;;;;;22.66;90.75;99325.88;5054022;28;20106;-66
2023/11/03 11:16:04;;;;;;;4.90;2.60;;;;;;;22.91;90.61;99298.78;5053718;28;20056;-65
2023/11/03 11:18:33;;;;;;;;;;;;;;;23.08;88.54;99301.72;4972377;28;20043;-65
2023/11/03 11:21:10;;;;;;;8.90;2.53;;;;;;;23.16;86.63;99295.38;4956111;28;19922;-64